sensor_id;sensor_type;location;lat;lon;timestamp;P1;durP1;ratioP1;P2;durP2;ratioP2
17520;SDS011;8878;-33.370;-70.552;2023-04-28T00:00:23;29.30;;;12.05;;
17520;SDS011;8878;-33.370;-70.552;2023-04-28T00:02:52;43.10;;;14.90;;
17520;SDS011;8878;-33.370;-70.552;2023-04-28T00:05:25;33.65;;;14.35;;
17520;SDS011;8878;-33.370;-70.552;2023-04-28T00:07:55;43.35;;;13.75;;
17520;SDS011;8878;-33.370;-70.552;2023-04-28T00:10:24;34.78;;;13.38;;
17520;SDS011;8878;-33.370;-70.552;2023-04-28T00:12:54;39.72;;;15.18;;
17520;SDS011;8878;-33.370;-70.552;2023-04-28T00:15:24;34.15;;;14.10;;
17520;SDS011;8878;-33.370;-70.552;2023-04-28T00:17:53;27.73;;;12.73;;
17520;SDS011;8878;-33.370;-70.552;2023-04-28T00:20:23;31.20;;;13.70;;
17520;SDS011;8878;-33.370;-70.552;2023-04-28T00:22:54;37.20;;;14.35;;
17520;SDS011;8878;-33.370;-70.552;2023-04-28T00:25:23;31.65;;;13.55;;
17520;SDS011;8878;-33.370;-70.552;2023-04-28T00:27:53;37.83;;;13.10;;
17520;SDS011;8878;-33.370;-70.552;2023-04-28T00:30:22;35.35;;;14.63;;
17520;SDS011;8878;-33.370;-70.552;2023-04-28T00:32:52;31.23;;;13.80;;
17520;SDS011;8878;-33.370;-70.552;2023-04-28T00:35:25;36.45;;;14.90;;
17520;SDS011;8878;-33.370;-70.552;2023-04-28T00:37:55;31.15;;;13.77;;
17520;SDS011;8878;-33.370;-70.552;2023-04-28T00:40:31;35.95;;;14.98;;
17520;SDS011;8878;-33.370;-70.552;2023-04-28T00:43:01;33.47;;;13.23;;
17520;SDS011;8878;-33.370;-70.552;2023-04-28T00:45:31;30.50;;;13.10;;
17520;SDS011;8878;-33.370;-70.552;2023-04-28T00:48:01;30.73;;;13.75;;
17520;SDS011;8878;-33.370;-70.552;2023-04-28T00:50:32;38.80;;;14.25;;
17520;SDS011;8878;-33.370;-70.552;2023-04-28T00:53:01;35.83;;;13.02;;
17520;SDS011;8878;-33.370;-70.552;2023-04-28T00:55:31;31.38;;;13.20;;
17520;SDS011;8878;-33.370;-70.552;2023-04-28T00:58:02;32.85;;;13.70;;
17520;SDS011;8878;-33.370;-70.552;2023-04-28T01:00:32;28.38;;;12.27;;
17520;SDS011;8878;-33.370;-70.552;2023-04-28T01:03:02;40.75;;;13.07;;
17520;SDS011;8878;-33.370;-70.552;2023-04-28T01:05:34;35.40;;;13.20;;
17520;SDS011;8878;-33.370;-70.552;2023-04-28T01:08:05;33.60;;;13.87;;
17520;SDS011;8878;-33.370;-70.552;2023-04-28T01:10:36;32.95;;;14.98;;
17520;SDS011;8878;-33.370;-70.552;2023-04-28T01:13:12;26.85;;;12.48;;
17520;SDS011;8878;-33.370;-70.552;2023-04-28T01:15:42;31.02;;;13.35;;
17520;SDS011;8878;-33.370;-70.552;2023-04-28T01:18:12;33.23;;;12.43;;
17520;SDS011;8878;-33.370;-70.552;2023-04-28T01:20:45;30.30;;;12.60;;
17520;SDS011;8878;-33.370;-70.552;2023-04-28T01:23:14;33.13;;;12.50;;
17520;SDS011;8878;-33.370;-70.552;2023-04-28T01:25:46;27.48;;;12.93;;
17520;SDS011;8878;-33.370;-70.552;2023-04-28T01:28:16;32.20;;;12.98;;
17520;SDS011;8878;-33.370;-70.552;2023-04-28T01:30:45;27.90;;;11.90;;
17520;SDS011;8878;-33.370;-70.552;2023-04-28T01:33:15;31.52;;;11.95;;
17520;SDS011;8878;-33.370;-70.552;2023-04-28T01:35:44;32.13;;;13.87;;
17520;SDS011;8878;-33.370;-70.552;2023-04-28T01:38:14;32.42;;;12.52;;
17520;SDS011;8878;-33.370;-70.552;2023-04-28T01:40:44;29.07;;;11.70;;
17520;SDS011;8878;-33.370;-70.552;2023-04-28T01:43:15;30.87;;;12.87;;
17520;SDS011;8878;-33.370;-70.552;2023-04-28T01:45:45;27.27;;;11.73;;
17520;SDS011;8878;-33.370;-70.552;2023-04-28T01:48:14;30.87;;;12.60;;
17520;SDS011;8878;-33.370;-70.552;2023-04-28T01:50:44;34.43;;;13.33;;
17520;SDS011;8878;-33.370;-70.552;2023-04-28T01:53:13;33.63;;;12.60;;
17520;SDS011;8878;-33.370;-70.552;2023-04-28T01:55:47;32.40;;;13.20;;
17520;SDS011;8878;-33.370;-70.552;2023-04-28T01:58:16;37.30;;;13.70;;
17520;SDS011;8878;-33.370;-70.552;2023-04-28T02:00:46;30.67;;;12.07;;
17520;SDS011;8878;-33.370;-70.552;2023-04-28T02:03:15;41.90;;;14.00;;
17520;SDS011;8878;-33.370;-70.552;2023-04-28T02:05:45;31.23;;;11.80;;
17520;SDS011;8878;-33.370;-70.552;2023-04-28T02:08:15;36.70;;;14.47;;
17520;SDS011;8878;-33.370;-70.552;2023-04-28T02:10:46;26.93;;;11.23;;
17520;SDS011;8878;-33.370;-70.552;2023-04-28T02:13:16;32.77;;;11.10;;
17520;SDS011;8878;-33.370;-70.552;2023-04-28T02:15:45;28.30;;;12.23;;
17520;SDS011;8878;-33.370;-70.552;2023-04-28T02:18:15;34.20;;;14.17;;
17520;SDS011;8878;-33.370;-70.552;2023-04-28T02:20:44;31.20;;;13.83;;
17520;SDS011;8878;-33.370;-70.552;2023-04-28T02:23:14;31.13;;;12.47;;
17520;SDS011;8878;-33.370;-70.552;2023-04-28T02:25:43;27.60;;;11.47;;
17520;SDS011;8878;-33.370;-70.552;2023-04-28T02:28:14;29.57;;;12.63;;
17520;SDS011;8878;-33.370;-70.552;2023-04-28T02:30:44;27.40;;;11.53;;
17520;SDS011;8878;-33.370;-70.552;2023-04-28T02:33:14;25.57;;;11.20;;
17520;SDS011;8878;-33.370;-70.552;2023-04-28T02:35:43;22.93;;;10.00;;
17520;SDS011;8878;-33.370;-70.552;2023-04-28T02:38:13;25.53;;;10.97;;
17520;SDS011;8878;-33.370;-70.552;2023-04-28T02:40:42;31.93;;;11.97;;
17520;SDS011;8878;-33.370;-70.552;2023-04-28T02:43:13;30.53;;;10.53;;
17520;SDS011;8878;-33.370;-70.552;2023-04-28T02:45:43;31.70;;;10.70;;
17520;SDS011;8878;-33.370;-70.552;2023-04-28T02:48:13;26.90;;;10.50;;
17520;SDS011;8878;-33.370;-70.552;2023-04-28T02:50:42;28.97;;;12.00;;
17520;SDS011;8878;-33.370;-70.552;2023-04-28T02:53:12;27.77;;;10.68;;
17520;SDS011;8878;-33.370;-70.552;2023-04-28T02:55:42;25.52;;;10.68;;
17520;SDS011;8878;-33.370;-70.552;2023-04-28T02:58:13;28.30;;;9.73;;
17520;SDS011;8878;-33.370;-70.552;2023-04-28T03:00:44;28.47;;;11.40;;
17520;SDS011;8878;-33.370;-70.552;2023-04-28T03:03:13;26.40;;;11.10;;
17520;SDS011;8878;-33.370;-70.552;2023-04-28T03:05:43;26.70;;;12.13;;
17520;SDS011;8878;-33.370;-70.552;2023-04-28T03:08:12;30.63;;;10.80;;
17520;SDS011;8878;-33.370;-70.552;2023-04-28T03:10:42;33.07;;;11.53;;
17520;SDS011;8878;-33.370;-70.552;2023-04-28T03:13:13;28.03;;;11.47;;
17520;SDS011;8878;-33.370;-70.552;2023-04-28T03:15:43;27.57;;;11.30;;
17520;SDS011;8878;-33.370;-70.552;2023-04-28T03:18:12;38.37;;;12.63;;
17520;SDS011;8878;-33.370;-70.552;2023-04-28T03:20:42;28.67;;;13.00;;
17520;SDS011;8878;-33.370;-70.552;2023-04-28T03:23:12;31.20;;;11.67;;
17520;SDS011;8878;-33.370;-70.552;2023-04-28T03:25:42;33.90;;;12.10;;
17520;SDS011;8878;-33.370;-70.552;2023-04-28T03:28:13;25.70;;;10.27;;
17520;SDS011;8878;-33.370;-70.552;2023-04-28T03:30:43;24.60;;;10.70;;
17520;SDS011;8878;-33.370;-70.552;2023-04-28T03:33:12;37.33;;;11.10;;
17520;SDS011;8878;-33.370;-70.552;2023-04-28T03:35:42;34.03;;;11.63;;
17520;SDS011;8878;-33.370;-70.552;2023-04-28T03:38:11;28.87;;;9.37;;
17520;SDS011;8878;-33.370;-70.552;2023-04-28T03:40:41;25.10;;;10.80;;
17520;SDS011;8878;-33.370;-70.552;2023-04-28T03:43:11;24.73;;;9.83;;
17520;SDS011;8878;-33.370;-70.552;2023-04-28T03:45:42;31.20;;;11.50;;
17520;SDS011;8878;-33.370;-70.552;2023-04-28T03:48:12;27.20;;;10.70;;
17520;SDS011;8878;-33.370;-70.552;2023-04-28T03:50:42;27.07;;;11.37;;
17520;SDS011;8878;-33.370;-70.552;2023-04-28T03:53:11;25.40;;;11.03;;
17520;SDS011;8878;-33.370;-70.552;2023-04-28T03:55:41;24.63;;;11.30;;
17520;SDS011;8878;-33.370;-70.552;2023-04-28T03:58:13;23.47;;;11.20;;
17520;SDS011;8878;-33.370;-70.552;2023-04-28T04:00:42;24.90;;;10.07;;
17520;SDS011;8878;-33.370;-70.552;2023-04-28T04:03:12;36.70;;;12.07;;
17520;SDS011;8878;-33.370;-70.552;2023-04-28T04:05:42;32.87;;;10.60;;
17520;SDS011;8878;-33.370;-70.552;2023-04-28T04:08:11;24.47;;;10.80;;
17520;SDS011;8878;-33.370;-70.552;2023-04-28T04:10:41;29.13;;;13.10;;
17520;SDS011;8878;-33.370;-70.552;2023-04-28T04:13:11;25.90;;;10.57;;
17520;SDS011;8878;-33.370;-70.552;2023-04-28T04:15:42;32.20;;;10.73;;
17520;SDS011;8878;-33.370;-70.552;2023-04-28T04:18:13;25.83;;;12.80;;
17520;SDS011;8878;-33.370;-70.552;2023-04-28T04:20:42;26.10;;;10.67;;
17520;SDS011;8878;-33.370;-70.552;2023-04-28T04:23:13;29.47;;;12.33;;
17520;SDS011;8878;-33.370;-70.552;2023-04-28T04:25:43;33.17;;;11.50;;
17520;SDS011;8878;-33.370;-70.552;2023-04-28T04:28:15;28.73;;;11.13;;
17520;SDS011;8878;-33.370;-70.552;2023-04-28T04:30:44;25.43;;;10.87;;
17520;SDS011;8878;-33.370;-70.552;2023-04-28T04:33:14;32.10;;;10.90;;
17520;SDS011;8878;-33.370;-70.552;2023-04-28T04:35:43;25.20;;;11.87;;
17520;SDS011;8878;-33.370;-70.552;2023-04-28T04:38:13;25.80;;;11.10;;
17520;SDS011;8878;-33.370;-70.552;2023-04-28T04:40:43;27.53;;;10.93;;
17520;SDS011;8878;-33.370;-70.552;2023-04-28T04:43:13;28.00;;;10.83;;
17520;SDS011;8878;-33.370;-70.552;2023-04-28T04:45:44;21.63;;;10.17;;
17520;SDS011;8878;-33.370;-70.552;2023-04-28T04:48:13;27.07;;;10.93;;
17520;SDS011;8878;-33.370;-70.552;2023-04-28T04:50:43;25.00;;;11.67;;
17520;SDS011;8878;-33.370;-70.552;2023-04-28T04:53:14;31.97;;;11.67;;
17520;SDS011;8878;-33.370;-70.552;2023-04-28T04:55:43;24.30;;;10.43;;
17520;SDS011;8878;-33.370;-70.552;2023-04-28T04:58:13;28.93;;;11.07;;
17520;SDS011;8878;-33.370;-70.552;2023-04-28T05:00:44;28.23;;;9.53;;
17520;SDS011;8878;-33.370;-70.552;2023-04-28T05:03:15;28.90;;;11.70;;
17520;SDS011;8878;-33.370;-70.552;2023-04-28T05:05:45;32.20;;;10.97;;
17520;SDS011;8878;-33.370;-70.552;2023-04-28T05:08:15;20.27;;;9.60;;
17520;SDS011;8878;-33.370;-70.552;2023-04-28T05:10:46;27.77;;;9.00;;
17520;SDS011;8878;-33.370;-70.552;2023-04-28T05:13:17;22.30;;;9.97;;
17520;SDS011;8878;-33.370;-70.552;2023-04-28T05:15:46;21.90;;;9.87;;
17520;SDS011;8878;-33.370;-70.552;2023-04-28T05:18:17;22.03;;;9.10;;
17520;SDS011;8878;-33.370;-70.552;2023-04-28T05:20:46;22.10;;;10.33;;
17520;SDS011;8878;-33.370;-70.552;2023-04-28T05:23:16;26.80;;;10.47;;
17520;SDS011;8878;-33.370;-70.552;2023-04-28T05:25:45;26.00;;;9.30;;
17520;SDS011;8878;-33.370;-70.552;2023-04-28T05:28:15;22.17;;;10.70;;
17520;SDS011;8878;-33.370;-70.552;2023-04-28T05:30:46;27.27;;;10.47;;
17520;SDS011;8878;-33.370;-70.552;2023-04-28T05:33:16;27.10;;;9.40;;
17520;SDS011;8878;-33.370;-70.552;2023-04-28T05:35:45;24.93;;;8.37;;
17520;SDS011;8878;-33.370;-70.552;2023-04-28T05:38:16;21.13;;;9.90;;
17520;SDS011;8878;-33.370;-70.552;2023-04-28T05:40:45;27.13;;;9.63;;
17520;SDS011;8878;-33.370;-70.552;2023-04-28T05:43:15;30.60;;;10.87;;
17520;SDS011;8878;-33.370;-70.552;2023-04-28T05:45:46;21.13;;;10.27;;
17520;SDS011;8878;-33.370;-70.552;2023-04-28T05:48:15;27.90;;;12.07;;
17520;SDS011;8878;-33.370;-70.552;2023-04-28T05:50:46;25.93;;;11.23;;
17520;SDS011;8878;-33.370;-70.552;2023-04-28T05:53:15;31.27;;;11.50;;
17520;SDS011;8878;-33.370;-70.552;2023-04-28T05:55:45;26.57;;;9.90;;
17520;SDS011;8878;-33.370;-70.552;2023-04-28T05:58:14;24.53;;;11.20;;
17520;SDS011;8878;-33.370;-70.552;2023-04-28T06:00:46;29.30;;;10.80;;
17520;SDS011;8878;-33.370;-70.552;2023-04-28T06:03:15;23.87;;;10.47;;
17520;SDS011;8878;-33.370;-70.552;2023-04-28T06:05:46;20.73;;;8.63;;
17520;SDS011;8878;-33.370;-70.552;2023-04-28T06:08:16;28.50;;;9.47;;
17520;SDS011;8878;-33.370;-70.552;2023-04-28T06:10:46;31.80;;;10.50;;
17520;SDS011;8878;-33.370;-70.552;2023-04-28T06:13:17;28.27;;;11.13;;
17520;SDS011;8878;-33.370;-70.552;2023-04-28T06:15:47;34.00;;;10.37;;
17520;SDS011;8878;-33.370;-70.552;2023-04-28T06:18:16;26.73;;;10.97;;
17520;SDS011;8878;-33.370;-70.552;2023-04-28T06:20:46;28.80;;;11.07;;
17520;SDS011;8878;-33.370;-70.552;2023-04-28T06:23:15;20.13;;;9.70;;
17520;SDS011;8878;-33.370;-70.552;2023-04-28T06:25:45;33.73;;;10.77;;
17520;SDS011;8878;-33.370;-70.552;2023-04-28T06:28:14;32.13;;;11.53;;
17520;SDS011;8878;-33.370;-70.552;2023-04-28T06:30:46;22.27;;;9.73;;
17520;SDS011;8878;-33.370;-70.552;2023-04-28T06:33:15;30.07;;;11.77;;
17520;SDS011;8878;-33.370;-70.552;2023-04-28T06:35:45;26.13;;;10.67;;
17520;SDS011;8878;-33.370;-70.552;2023-04-28T06:38:15;28.77;;;11.33;;
17520;SDS011;8878;-33.370;-70.552;2023-04-28T06:40:44;23.60;;;9.83;;
17520;SDS011;8878;-33.370;-70.552;2023-04-28T06:43:14;20.60;;;8.07;;
17520;SDS011;8878;-33.370;-70.552;2023-04-28T06:45:45;24.17;;;9.90;;
17520;SDS011;8878;-33.370;-70.552;2023-04-28T06:48:15;21.60;;;9.63;;
17520;SDS011;8878;-33.370;-70.552;2023-04-28T06:50:44;22.50;;;11.30;;
17520;SDS011;8878;-33.370;-70.552;2023-04-28T06:53:14;24.80;;;10.27;;
17520;SDS011;8878;-33.370;-70.552;2023-04-28T06:55:43;20.53;;;9.90;;
17520;SDS011;8878;-33.370;-70.552;2023-04-28T06:58:13;25.13;;;11.23;;
17520;SDS011;8878;-33.370;-70.552;2023-04-28T07:00:42;34.97;;;10.63;;
17520;SDS011;8878;-33.370;-70.552;2023-04-28T07:03:14;31.20;;;10.43;;
17520;SDS011;8878;-33.370;-70.552;2023-04-28T07:05:43;25.97;;;8.73;;
17520;SDS011;8878;-33.370;-70.552;2023-04-28T07:08:13;30.27;;;9.30;;
17520;SDS011;8878;-33.370;-70.552;2023-04-28T07:10:44;26.10;;;9.77;;
17520;SDS011;8878;-33.370;-70.552;2023-04-28T07:13:14;21.93;;;9.37;;
17520;SDS011;8878;-33.370;-70.552;2023-04-28T07:15:43;18.77;;;8.43;;
17520;SDS011;8878;-33.370;-70.552;2023-04-28T07:18:14;30.13;;;9.90;;
17520;SDS011;8878;-33.370;-70.552;2023-04-28T07:20:44;31.03;;;10.53;;
17520;SDS011;8878;-33.370;-70.552;2023-04-28T07:23:13;24.07;;;9.93;;
17520;SDS011;8878;-33.370;-70.552;2023-04-28T07:25:43;26.67;;;10.20;;
17520;SDS011;8878;-33.370;-70.552;2023-04-28T07:28:12;28.77;;;11.03;;
17520;SDS011;8878;-33.370;-70.552;2023-04-28T07:30:42;27.17;;;10.87;;
17520;SDS011;8878;-33.370;-70.552;2023-04-28T07:33:13;29.50;;;9.33;;
17520;SDS011;8878;-33.370;-70.552;2023-04-28T07:35:43;19.40;;;9.20;;
17520;SDS011;8878;-33.370;-70.552;2023-04-28T07:38:13;24.87;;;10.77;;
17520;SDS011;8878;-33.370;-70.552;2023-04-28T07:40:43;29.43;;;9.50;;
17520;SDS011;8878;-33.370;-70.552;2023-04-28T07:43:12;26.60;;;10.47;;
17520;SDS011;8878;-33.370;-70.552;2023-04-28T07:45:42;24.60;;;10.50;;
17520;SDS011;8878;-33.370;-70.552;2023-04-28T07:48:15;22.67;;;9.60;;
17520;SDS011;8878;-33.370;-70.552;2023-04-28T07:50:45;22.33;;;9.53;;
17520;SDS011;8878;-33.370;-70.552;2023-04-28T07:53:15;22.27;;;9.57;;
17520;SDS011;8878;-33.370;-70.552;2023-04-28T07:55:44;34.60;;;11.10;;
17520;SDS011;8878;-33.370;-70.552;2023-04-28T07:58:14;34.10;;;11.70;;
17520;SDS011;8878;-33.370;-70.552;2023-04-28T08:00:44;25.20;;;8.60;;
17520;SDS011;8878;-33.370;-70.552;2023-04-28T08:03:15;22.87;;;9.90;;
17520;SDS011;8878;-33.370;-70.552;2023-04-28T08:05:45;34.53;;;10.93;;
17520;SDS011;8878;-33.370;-70.552;2023-04-28T08:08:15;32.73;;;12.00;;
17520;SDS011;8878;-33.370;-70.552;2023-04-28T08:10:45;22.63;;;9.87;;
17520;SDS011;8878;-33.370;-70.552;2023-04-28T08:13:15;23.57;;;9.27;;
17520;SDS011;8878;-33.370;-70.552;2023-04-28T08:15:46;31.77;;;9.73;;
17520;SDS011;8878;-33.370;-70.552;2023-04-28T08:18:18;33.13;;;10.37;;
17520;SDS011;8878;-33.370;-70.552;2023-04-28T08:20:47;30.17;;;10.63;;
17520;SDS011;8878;-33.370;-70.552;2023-04-28T08:23:17;20.83;;;8.97;;
17520;SDS011;8878;-33.370;-70.552;2023-04-28T08:25:47;27.50;;;11.20;;
17520;SDS011;8878;-33.370;-70.552;2023-04-28T08:28:17;29.20;;;10.67;;
17520;SDS011;8878;-33.370;-70.552;2023-04-28T08:30:47;26.13;;;9.77;;
17520;SDS011;8878;-33.370;-70.552;2023-04-28T08:33:19;24.30;;;10.07;;
17520;SDS011;8878;-33.370;-70.552;2023-04-28T08:35:49;28.00;;;10.70;;
17520;SDS011;8878;-33.370;-70.552;2023-04-28T08:38:19;22.90;;;9.97;;
17520;SDS011;8878;-33.370;-70.552;2023-04-28T08:40:50;26.47;;;10.50;;
17520;SDS011;8878;-33.370;-70.552;2023-04-28T08:43:19;25.63;;;10.40;;
17520;SDS011;8878;-33.370;-70.552;2023-04-28T08:45:49;22.93;;;9.97;;
17520;SDS011;8878;-33.370;-70.552;2023-04-28T08:48:21;22.27;;;10.27;;
17520;SDS011;8878;-33.370;-70.552;2023-04-28T08:50:51;20.53;;;11.20;;
17520;SDS011;8878;-33.370;-70.552;2023-04-28T08:53:22;16.73;;;8.40;;
17520;SDS011;8878;-33.370;-70.552;2023-04-28T08:55:53;23.83;;;10.83;;
17520;SDS011;8878;-33.370;-70.552;2023-04-28T08:58:23;26.47;;;10.10;;
17520;SDS011;8878;-33.370;-70.552;2023-04-28T09:00:53;27.43;;;9.40;;
17520;SDS011;8878;-33.370;-70.552;2023-04-28T09:03:25;25.07;;;8.40;;
17520;SDS011;8878;-33.370;-70.552;2023-04-28T09:05:55;23.03;;;10.20;;
17520;SDS011;8878;-33.370;-70.552;2023-04-28T09:08:24;24.57;;;9.97;;
17520;SDS011;8878;-33.370;-70.552;2023-04-28T09:11:06;36.37;;;11.30;;
17520;SDS011;8878;-33.370;-70.552;2023-04-28T09:13:38;18.33;;;8.90;;
17520;SDS011;8878;-33.370;-70.552;2023-04-28T09:16:08;22.67;;;10.13;;
17520;SDS011;8878;-33.370;-70.552;2023-04-28T09:18:40;24.37;;;10.10;;
17520;SDS011;8878;-33.370;-70.552;2023-04-28T09:21:24;23.97;;;10.90;;
17520;SDS011;8878;-33.370;-70.552;2023-04-28T09:23:53;29.23;;;11.43;;
17520;SDS011;8878;-33.370;-70.552;2023-04-28T09:26:23;22.47;;;10.73;;
17520;SDS011;8878;-33.370;-70.552;2023-04-28T09:28:52;22.60;;;10.07;;
17520;SDS011;8878;-33.370;-70.552;2023-04-28T09:31:39;23.07;;;10.03;;
17520;SDS011;8878;-33.370;-70.552;2023-04-28T09:34:11;30.57;;;11.83;;
17520;SDS011;8878;-33.370;-70.552;2023-04-28T09:36:40;22.10;;;10.10;;
17520;SDS011;8878;-33.370;-70.552;2023-04-28T09:39:11;22.80;;;10.07;;
17520;SDS011;8878;-33.370;-70.552;2023-04-28T09:41:42;27.27;;;10.17;;
17520;SDS011;8878;-33.370;-70.552;2023-04-28T09:44:12;23.13;;;9.87;;
17520;SDS011;8878;-33.370;-70.552;2023-04-28T09:46:43;25.57;;;10.47;;
17520;SDS011;8878;-33.370;-70.552;2023-04-28T09:49:16;30.50;;;10.77;;
17520;SDS011;8878;-33.370;-70.552;2023-04-28T09:51:45;28.37;;;9.20;;
17520;SDS011;8878;-33.370;-70.552;2023-04-28T09:54:15;24.40;;;9.40;;
17520;SDS011;8878;-33.370;-70.552;2023-04-28T09:56:47;27.17;;;10.70;;
17520;SDS011;8878;-33.370;-70.552;2023-04-28T09:59:18;23.30;;;8.10;;
17520;SDS011;8878;-33.370;-70.552;2023-04-28T10:01:48;22.43;;;10.87;;
17520;SDS011;8878;-33.370;-70.552;2023-04-28T10:04:20;23.77;;;11.20;;
17520;SDS011;8878;-33.370;-70.552;2023-04-28T10:06:49;28.60;;;11.67;;
17520;SDS011;8878;-33.370;-70.552;2023-04-28T10:09:19;25.87;;;11.67;;
17520;SDS011;8878;-33.370;-70.552;2023-04-28T10:11:51;30.67;;;10.17;;
17520;SDS011;8878;-33.370;-70.552;2023-04-28T10:14:21;35.57;;;12.73;;
17520;SDS011;8878;-33.370;-70.552;2023-04-28T10:16:51;34.83;;;10.33;;
17520;SDS011;8878;-33.370;-70.552;2023-04-28T10:19:25;29.80;;;11.63;;
17520;SDS011;8878;-33.370;-70.552;2023-04-28T10:21:58;27.43;;;11.77;;
17520;SDS011;8878;-33.370;-70.552;2023-04-28T10:24:45;24.87;;;11.47;;
17520;SDS011;8878;-33.370;-70.552;2023-04-28T10:27:36;28.50;;;13.30;;
17520;SDS011;8878;-33.370;-70.552;2023-04-28T10:30:11;22.70;;;10.23;;
17520;SDS011;8878;-33.370;-70.552;2023-04-28T10:32:41;25.87;;;10.67;;
17520;SDS011;8878;-33.370;-70.552;2023-04-28T10:38:11;31.83;;;11.27;;
17520;SDS011;8878;-33.370;-70.552;2023-04-28T10:40:41;27.50;;;11.63;;
17520;SDS011;8878;-33.370;-70.552;2023-04-28T10:43:12;39.93;;;12.37;;
17520;SDS011;8878;-33.370;-70.552;2023-04-28T10:46:00;28.70;;;11.07;;
17520;SDS011;8878;-33.370;-70.552;2023-04-28T10:51:35;32.67;;;12.40;;
17520;SDS011;8878;-33.370;-70.552;2023-04-28T10:54:08;27.80;;;11.03;;
17520;SDS011;8878;-33.370;-70.552;2023-04-28T10:56:41;29.90;;;11.07;;
17520;SDS011;8878;-33.370;-70.552;2023-04-28T10:59:45;26.27;;;11.83;;
17520;SDS011;8878;-33.370;-70.552;2023-04-28T11:05:17;29.27;;;12.07;;
17520;SDS011;8878;-33.370;-70.552;2023-04-28T11:11:13;18.73;;;10.00;;
17520;SDS011;8878;-33.370;-70.552;2023-04-28T11:13:44;29.80;;;10.20;;
17520;SDS011;8878;-33.370;-70.552;2023-04-28T11:16:15;21.90;;;11.43;;
17520;SDS011;8878;-33.370;-70.552;2023-04-28T11:18:52;31.53;;;14.30;;
17520;SDS011;8878;-33.370;-70.552;2023-04-28T11:21:29;32.67;;;11.63;;
17520;SDS011;8878;-33.370;-70.552;2023-04-28T11:23:59;32.90;;;12.93;;
17520;SDS011;8878;-33.370;-70.552;2023-04-28T11:26:38;32.03;;;11.90;;
17520;SDS011;8878;-33.370;-70.552;2023-04-28T11:29:08;31.30;;;11.03;;
17520;SDS011;8878;-33.370;-70.552;2023-04-28T11:31:39;26.97;;;10.40;;
17520;SDS011;8878;-33.370;-70.552;2023-04-28T11:34:17;31.40;;;11.57;;
17520;SDS011;8878;-33.370;-70.552;2023-04-28T11:36:48;37.90;;;10.83;;
17520;SDS011;8878;-33.370;-70.552;2023-04-28T11:39:24;21.23;;;9.10;;
17520;SDS011;8878;-33.370;-70.552;2023-04-28T11:41:58;29.47;;;11.90;;
17520;SDS011;8878;-33.370;-70.552;2023-04-28T11:44:28;26.63;;;11.00;;
17520;SDS011;8878;-33.370;-70.552;2023-04-28T11:46:59;30.83;;;11.83;;
17520;SDS011;8878;-33.370;-70.552;2023-04-28T11:49:29;32.37;;;13.33;;
17520;SDS011;8878;-33.370;-70.552;2023-04-28T11:52:03;30.27;;;12.77;;
17520;SDS011;8878;-33.370;-70.552;2023-04-28T11:54:33;35.13;;;11.17;;
17520;SDS011;8878;-33.370;-70.552;2023-04-28T11:57:05;45.63;;;16.00;;
17520;SDS011;8878;-33.370;-70.552;2023-04-28T11:59:43;28.43;;;12.23;;
17520;SDS011;8878;-33.370;-70.552;2023-04-28T12:02:13;24.90;;;11.57;;
17520;SDS011;8878;-33.370;-70.552;2023-04-28T12:04:43;34.47;;;13.57;;
17520;SDS011;8878;-33.370;-70.552;2023-04-28T12:07:16;35.07;;;12.00;;
17520;SDS011;8878;-33.370;-70.552;2023-04-28T12:09:47;32.43;;;13.43;;
17520;SDS011;8878;-33.370;-70.552;2023-04-28T12:12:38;27.37;;;11.90;;
17520;SDS011;8878;-33.370;-70.552;2023-04-28T12:15:08;32.83;;;12.07;;
17520;SDS011;8878;-33.370;-70.552;2023-04-28T12:17:39;27.57;;;9.17;;
17520;SDS011;8878;-33.370;-70.552;2023-04-28T12:20:09;27.93;;;12.53;;
17520;SDS011;8878;-33.370;-70.552;2023-04-28T12:23:00;31.37;;;12.10;;
17520;SDS011;8878;-33.370;-70.552;2023-04-28T12:25:30;35.83;;;12.33;;
17520;SDS011;8878;-33.370;-70.552;2023-04-28T12:28:03;26.97;;;11.63;;
17520;SDS011;8878;-33.370;-70.552;2023-04-28T12:30:35;30.63;;;12.87;;
17520;SDS011;8878;-33.370;-70.552;2023-04-28T12:33:20;32.77;;;11.07;;
17520;SDS011;8878;-33.370;-70.552;2023-04-28T12:35:50;31.23;;;11.83;;
17520;SDS011;8878;-33.370;-70.552;2023-04-28T12:38:20;31.57;;;11.80;;
17520;SDS011;8878;-33.370;-70.552;2023-04-28T12:40:50;29.03;;;12.23;;
17520;SDS011;8878;-33.370;-70.552;2023-04-28T12:43:22;23.80;;;11.80;;
17520;SDS011;8878;-33.370;-70.552;2023-04-28T12:45:54;28.53;;;11.47;;
17520;SDS011;8878;-33.370;-70.552;2023-04-28T12:48:23;33.87;;;12.90;;
17520;SDS011;8878;-33.370;-70.552;2023-04-28T12:50:53;31.23;;;11.03;;
17520;SDS011;8878;-33.370;-70.552;2023-04-28T12:53:22;30.97;;;11.60;;
17520;SDS011;8878;-33.370;-70.552;2023-04-28T12:55:52;36.63;;;13.23;;
17520;SDS011;8878;-33.370;-70.552;2023-04-28T12:58:24;38.20;;;14.97;;
17520;SDS011;8878;-33.370;-70.552;2023-04-28T13:00:53;32.83;;;12.77;;
17520;SDS011;8878;-33.370;-70.552;2023-04-28T13:03:23;29.27;;;12.40;;
17520;SDS011;8878;-33.370;-70.552;2023-04-28T13:05:53;27.10;;;11.73;;
17520;SDS011;8878;-33.370;-70.552;2023-04-28T13:08:22;41.13;;;14.40;;
17520;SDS011;8878;-33.370;-70.552;2023-04-28T13:10:52;33.33;;;13.30;;
17520;SDS011;8878;-33.370;-70.552;2023-04-28T13:13:24;27.60;;;10.70;;
17520;SDS011;8878;-33.370;-70.552;2023-04-28T13:15:53;43.30;;;13.00;;
17520;SDS011;8878;-33.370;-70.552;2023-04-28T13:18:23;27.37;;;13.03;;
17520;SDS011;8878;-33.370;-70.552;2023-04-28T13:20:53;32.80;;;12.07;;
17520;SDS011;8878;-33.370;-70.552;2023-04-28T13:23:22;31.60;;;13.53;;
17520;SDS011;8878;-33.370;-70.552;2023-04-28T13:25:52;36.17;;;12.17;;
17520;SDS011;8878;-33.370;-70.552;2023-04-28T13:28:23;23.07;;;11.77;;
17520;SDS011;8878;-33.370;-70.552;2023-04-28T13:30:52;28.07;;;10.47;;
17520;SDS011;8878;-33.370;-70.552;2023-04-28T13:33:22;28.33;;;12.43;;
17520;SDS011;8878;-33.370;-70.552;2023-04-28T13:35:56;43.57;;;13.50;;
17520;SDS011;8878;-33.370;-70.552;2023-04-28T13:38:26;38.83;;;13.67;;
17520;SDS011;8878;-33.370;-70.552;2023-04-28T13:40:55;37.53;;;13.37;;
17520;SDS011;8878;-33.370;-70.552;2023-04-28T13:43:27;43.13;;;13.87;;
17520;SDS011;8878;-33.370;-70.552;2023-04-28T13:45:57;36.63;;;14.57;;
17520;SDS011;8878;-33.370;-70.552;2023-04-28T13:48:32;35.70;;;14.37;;
17520;SDS011;8878;-33.370;-70.552;2023-04-28T13:51:02;41.57;;;14.70;;
17520;SDS011;8878;-33.370;-70.552;2023-04-28T13:53:32;37.70;;;14.80;;
17520;SDS011;8878;-33.370;-70.552;2023-04-28T13:56:03;49.97;;;16.40;;
17520;SDS011;8878;-33.370;-70.552;2023-04-28T13:58:34;42.57;;;13.57;;
17520;SDS011;8878;-33.370;-70.552;2023-04-28T14:01:04;39.87;;;14.90;;
17520;SDS011;8878;-33.370;-70.552;2023-04-28T14:03:33;40.03;;;13.43;;
17520;SDS011;8878;-33.370;-70.552;2023-04-28T14:06:03;55.67;;;14.97;;
17520;SDS011;8878;-33.370;-70.552;2023-04-28T14:08:33;39.97;;;14.43;;
17520;SDS011;8878;-33.370;-70.552;2023-04-28T14:11:03;45.63;;;15.50;;
17520;SDS011;8878;-33.370;-70.552;2023-04-28T14:13:35;46.87;;;15.20;;
17520;SDS011;8878;-33.370;-70.552;2023-04-28T14:16:04;47.87;;;15.17;;
17520;SDS011;8878;-33.370;-70.552;2023-04-28T14:18:34;40.30;;;13.67;;
17520;SDS011;8878;-33.370;-70.552;2023-04-28T14:21:04;33.17;;;12.57;;
17520;SDS011;8878;-33.370;-70.552;2023-04-28T14:23:34;46.50;;;15.27;;
17520;SDS011;8878;-33.370;-70.552;2023-04-28T14:26:04;31.83;;;14.33;;
17520;SDS011;8878;-33.370;-70.552;2023-04-28T14:28:36;31.77;;;13.80;;
17520;SDS011;8878;-33.370;-70.552;2023-04-28T14:31:05;39.30;;;14.67;;